Ritter, Oregon
Current Conditions -  °F | °C
As of 12:35 AM on Friday 28 Nov 2014 (Local Time) from KGCD Reporting Station
Overcast Overcast  
Wind Chill: 45°   Ceiling: 8500
Heat Index: 49°   Visibility: 10mi
Dew Point: 38°   Wind: 10mph
Humidity: 66%   Direction: 280°W
Pressure: 29.91"   Gusts: NA
Location:  44.89°N, 119.14°W
Report Text: KGCD 280835Z AUTO 28009KT 10SM SCT060 SCT065 OVC085 09/03 A2991 RMK AO2 T00940033
Loading
Personal Weather Stations






























Interactive Weather Map New forecast layout! Learn more

10-Day Weather Forecast

Advertisements
Track Severe Weather on mobile